sensor_id;sensor_type;location;lat;lon;timestamp;P1;durP1;ratioP1;P2;durP2;ratioP2
15230;SDS011;32569;51.762;8.564;2023-02-20T00:01:47;17.13;;;12.77;;
15230;SDS011;32569;51.762;8.564;2023-02-20T00:04:15;15.33;;;11.43;;
15230;SDS011;32569;51.762;8.564;2023-02-20T00:06:42;16.13;;;12.67;;
15230;SDS011;32569;51.762;8.564;2023-02-20T00:09:09;15.47;;;12.27;;
15230;SDS011;32569;51.762;8.564;2023-02-20T00:11:36;17.20;;;13.33;;
15230;SDS011;32569;51.762;8.564;2023-02-20T00:14:02;16.87;;;13.13;;
15230;SDS011;32569;51.762;8.564;2023-02-20T00:16:29;17.53;;;13.40;;
15230;SDS011;32569;51.762;8.564;2023-02-20T00:18:57;17.03;;;13.27;;
15230;SDS011;32569;51.762;8.564;2023-02-20T00:21:24;18.60;;;14.27;;
15230;SDS011;32569;51.762;8.564;2023-02-20T00:23:50;18.90;;;14.73;;
15230;SDS011;32569;51.762;8.564;2023-02-20T00:26:17;17.53;;;13.63;;
15230;SDS011;32569;51.762;8.564;2023-02-20T00:28:44;21.33;;;16.47;;
15230;SDS011;32569;51.762;8.564;2023-02-20T00:31:15;20.20;;;15.17;;
15230;SDS011;32569;51.762;8.564;2023-02-20T00:33:43;20.90;;;15.83;;
15230;SDS011;32569;51.762;8.564;2023-02-20T00:36:14;20.70;;;15.47;;
15230;SDS011;32569;51.762;8.564;2023-02-20T00:38:42;21.57;;;16.37;;
15230;SDS011;32569;51.762;8.564;2023-02-20T00:41:14;22.17;;;16.77;;
15230;SDS011;32569;51.762;8.564;2023-02-20T00:43:43;23.27;;;17.37;;
15230;SDS011;32569;51.762;8.564;2023-02-20T00:46:13;23.53;;;17.33;;
15230;SDS011;32569;51.762;8.564;2023-02-20T00:48:42;25.17;;;18.80;;
15230;SDS011;32569;51.762;8.564;2023-02-20T00:51:09;24.93;;;17.70;;
15230;SDS011;32569;51.762;8.564;2023-02-20T00:53:37;24.53;;;17.97;;
15230;SDS011;32569;51.762;8.564;2023-02-20T00:56:04;24.13;;;17.37;;
15230;SDS011;32569;51.762;8.564;2023-02-20T00:58:31;24.07;;;18.47;;
15230;SDS011;32569;51.762;8.564;2023-02-20T01:01:04;22.23;;;17.50;;
15230;SDS011;32569;51.762;8.564;2023-02-20T01:03:30;23.53;;;18.07;;
15230;SDS011;32569;51.762;8.564;2023-02-20T01:06:00;22.77;;;16.77;;
15230;SDS011;32569;51.762;8.564;2023-02-20T01:08:29;21.53;;;17.00;;
15230;SDS011;32569;51.762;8.564;2023-02-20T01:10:57;21.90;;;16.53;;
15230;SDS011;32569;51.762;8.564;2023-02-20T01:13:26;23.13;;;16.90;;
15230;SDS011;32569;51.762;8.564;2023-02-20T01:15:53;20.70;;;15.80;;
15230;SDS011;32569;51.762;8.564;2023-02-20T01:18:19;21.73;;;16.03;;
15230;SDS011;32569;51.762;8.564;2023-02-20T01:20:46;20.67;;;15.60;;
15230;SDS011;32569;51.762;8.564;2023-02-20T01:23:15;21.43;;;15.50;;
15230;SDS011;32569;51.762;8.564;2023-02-20T01:25:42;23.27;;;16.70;;
15230;SDS011;32569;51.762;8.564;2023-02-20T01:28:10;22.50;;;15.27;;
15230;SDS011;32569;51.762;8.564;2023-02-20T01:30:42;20.43;;;16.17;;
15230;SDS011;32569;51.762;8.564;2023-02-20T01:33:11;20.73;;;15.87;;
15230;SDS011;32569;51.762;8.564;2023-02-20T01:35:44;19.23;;;15.00;;
15230;SDS011;32569;51.762;8.564;2023-02-20T01:38:23;19.80;;;14.07;;
15230;SDS011;32569;51.762;8.564;2023-02-20T01:40:49;18.57;;;14.03;;
15230;SDS011;32569;51.762;8.564;2023-02-20T01:43:20;15.73;;;12.40;;
15230;SDS011;32569;51.762;8.564;2023-02-20T01:45:47;15.23;;;11.93;;
15230;SDS011;32569;51.762;8.564;2023-02-20T01:48:20;15.50;;;11.23;;
15230;SDS011;32569;51.762;8.564;2023-02-20T01:50:49;14.90;;;10.63;;
15230;SDS011;32569;51.762;8.564;2023-02-20T01:53:19;12.27;;;9.53;;
15230;SDS011;32569;51.762;8.564;2023-02-20T01:55:52;11.67;;;9.67;;
15230;SDS011;32569;51.762;8.564;2023-02-20T01:58:27;12.40;;;9.10;;
15230;SDS011;32569;51.762;8.564;2023-02-20T02:00:56;11.63;;;8.93;;
15230;SDS011;32569;51.762;8.564;2023-02-20T02:03:25;10.53;;;8.33;;
15230;SDS011;32569;51.762;8.564;2023-02-20T02:05:59;10.10;;;8.10;;
15230;SDS011;32569;51.762;8.564;2023-02-20T02:08:34;9.67;;;7.67;;
15230;SDS011;32569;51.762;8.564;2023-02-20T02:11:03;9.23;;;7.30;;
15230;SDS011;32569;51.762;8.564;2023-02-20T02:13:35;8.40;;;6.90;;
15230;SDS011;32569;51.762;8.564;2023-02-20T02:16:06;9.27;;;7.17;;
15230;SDS011;32569;51.762;8.564;2023-02-20T02:18:45;8.87;;;7.67;;
15230;SDS011;32569;51.762;8.564;2023-02-20T02:21:28;8.90;;;7.43;;
15230;SDS011;32569;51.762;8.564;2023-02-20T02:39:24;10.83;;;7.00;;
15230;SDS011;32569;51.762;8.564;2023-02-20T02:42:05;9.77;;;7.70;;
15230;SDS011;32569;51.762;8.564;2023-02-20T02:44:41;10.57;;;7.53;;
15230;SDS011;32569;51.762;8.564;2023-02-20T02:47:12;10.20;;;7.80;;
15230;SDS011;32569;51.762;8.564;2023-02-20T02:49:42;8.90;;;6.80;;
15230;SDS011;32569;51.762;8.564;2023-02-20T02:52:14;12.07;;;8.37;;
15230;SDS011;32569;51.762;8.564;2023-02-20T02:55:09;10.47;;;8.13;;
15230;SDS011;32569;51.762;8.564;2023-02-20T02:57:36;10.40;;;7.87;;
15230;SDS011;32569;51.762;8.564;2023-02-20T03:00:10;10.40;;;8.13;;
15230;SDS011;32569;51.762;8.564;2023-02-20T03:02:40;11.20;;;7.83;;
15230;SDS011;32569;51.762;8.564;2023-02-20T03:05:16;11.03;;;8.53;;
15230;SDS011;32569;51.762;8.564;2023-02-20T03:07:46;12.00;;;7.77;;
15230;SDS011;32569;51.762;8.564;2023-02-20T03:10:19;10.63;;;7.53;;
15230;SDS011;32569;51.762;8.564;2023-02-20T03:13:02;11.47;;;8.17;;
15230;SDS011;32569;51.762;8.564;2023-02-20T03:15:31;11.10;;;8.53;;
15230;SDS011;32569;51.762;8.564;2023-02-20T03:18:10;12.53;;;9.47;;
15230;SDS011;32569;51.762;8.564;2023-02-20T03:20:44;11.47;;;8.10;;
15230;SDS011;32569;51.762;8.564;2023-02-20T03:23:13;11.60;;;8.37;;
15230;SDS011;32569;51.762;8.564;2023-02-20T03:25:45;11.87;;;9.03;;
15230;SDS011;32569;51.762;8.564;2023-02-20T03:28:19;13.20;;;9.00;;
15230;SDS011;32569;51.762;8.564;2023-02-20T03:30:50;12.23;;;9.07;;
15230;SDS011;32569;51.762;8.564;2023-02-20T03:33:30;12.47;;;9.10;;
15230;SDS011;32569;51.762;8.564;2023-02-20T03:36:19;12.40;;;9.07;;
15230;SDS011;32569;51.762;8.564;2023-02-20T03:39:11;12.77;;;9.27;;
15230;SDS011;32569;51.762;8.564;2023-02-20T03:42:11;13.20;;;9.30;;
15230;SDS011;32569;51.762;8.564;2023-02-20T03:45:02;12.53;;;9.27;;
15230;SDS011;32569;51.762;8.564;2023-02-20T03:47:33;12.53;;;9.67;;
15230;SDS011;32569;51.762;8.564;2023-02-20T03:50:04;13.33;;;9.53;;
15230;SDS011;32569;51.762;8.564;2023-02-20T03:52:33;13.90;;;9.83;;
15230;SDS011;32569;51.762;8.564;2023-02-20T03:55:00;13.13;;;10.07;;
15230;SDS011;32569;51.762;8.564;2023-02-20T03:57:32;11.90;;;9.77;;
15230;SDS011;32569;51.762;8.564;2023-02-20T04:00:12;13.80;;;10.57;;
15230;SDS011;32569;51.762;8.564;2023-02-20T04:02:46;12.90;;;10.13;;
15230;SDS011;32569;51.762;8.564;2023-02-20T04:05:18;12.50;;;9.33;;
15230;SDS011;32569;51.762;8.564;2023-02-20T04:07:48;14.70;;;10.30;;
15230;SDS011;32569;51.762;8.564;2023-02-20T04:10:19;13.27;;;10.33;;
15230;SDS011;32569;51.762;8.564;2023-02-20T04:12:51;13.13;;;10.33;;
15230;SDS011;32569;51.762;8.564;2023-02-20T04:15:21;13.60;;;10.97;;
15230;SDS011;32569;51.762;8.564;2023-02-20T04:17:49;17.50;;;11.27;;
15230;SDS011;32569;51.762;8.564;2023-02-20T04:20:22;13.50;;;11.47;;
15230;SDS011;32569;51.762;8.564;2023-02-20T04:22:49;12.20;;;9.87;;
15230;SDS011;32569;51.762;8.564;2023-02-20T04:25:29;13.90;;;11.23;;
15230;SDS011;32569;51.762;8.564;2023-02-20T04:28:08;16.90;;;10.83;;
15230;SDS011;32569;51.762;8.564;2023-02-20T04:30:36;15.83;;;10.80;;
15230;SDS011;32569;51.762;8.564;2023-02-20T04:33:03;14.83;;;11.10;;
15230;SDS011;32569;51.762;8.564;2023-02-20T04:35:29;15.33;;;11.30;;
15230;SDS011;32569;51.762;8.564;2023-02-20T04:37:56;16.23;;;11.63;;
15230;SDS011;32569;51.762;8.564;2023-02-20T04:40:23;15.77;;;11.77;;
15230;SDS011;32569;51.762;8.564;2023-02-20T04:42:53;15.37;;;12.80;;
15230;SDS011;32569;51.762;8.564;2023-02-20T04:45:26;17.03;;;11.63;;
15230;SDS011;32569;51.762;8.564;2023-02-20T04:47:53;17.93;;;12.60;;
15230;SDS011;32569;51.762;8.564;2023-02-20T04:50:24;17.73;;;13.00;;
15230;SDS011;32569;51.762;8.564;2023-02-20T04:52:55;19.33;;;13.63;;
15230;SDS011;32569;51.762;8.564;2023-02-20T04:55:28;19.27;;;13.57;;
15230;SDS011;32569;51.762;8.564;2023-02-20T04:57:54;21.10;;;14.03;;
15230;SDS011;32569;51.762;8.564;2023-02-20T05:00:22;17.23;;;12.97;;
15230;SDS011;32569;51.762;8.564;2023-02-20T05:02:51;17.60;;;12.77;;
15230;SDS011;32569;51.762;8.564;2023-02-20T05:05:28;16.30;;;12.63;;
15230;SDS011;32569;51.762;8.564;2023-02-20T05:07:55;18.43;;;13.00;;
15230;SDS011;32569;51.762;8.564;2023-02-20T05:10:30;17.50;;;12.80;;
15230;SDS011;32569;51.762;8.564;2023-02-20T05:12:58;17.23;;;12.90;;
15230;SDS011;32569;51.762;8.564;2023-02-20T05:15:32;18.03;;;13.37;;
15230;SDS011;32569;51.762;8.564;2023-02-20T05:17:59;18.10;;;12.43;;
15230;SDS011;32569;51.762;8.564;2023-02-20T05:20:26;16.07;;;12.13;;
15230;SDS011;32569;51.762;8.564;2023-02-20T05:23:07;17.87;;;13.27;;
15230;SDS011;32569;51.762;8.564;2023-02-20T05:25:41;17.17;;;13.27;;
15230;SDS011;32569;51.762;8.564;2023-02-20T05:28:13;16.77;;;12.73;;
15230;SDS011;32569;51.762;8.564;2023-02-20T05:30:47;13.40;;;11.00;;
15230;SDS011;32569;51.762;8.564;2023-02-20T05:33:14;17.23;;;12.10;;
15230;SDS011;32569;51.762;8.564;2023-02-20T05:35:41;15.87;;;12.03;;
15230;SDS011;32569;51.762;8.564;2023-02-20T05:38:07;17.17;;;11.97;;
15230;SDS011;32569;51.762;8.564;2023-02-20T05:40:34;14.63;;;11.63;;
15230;SDS011;32569;51.762;8.564;2023-02-20T05:43:01;14.67;;;10.30;;
15230;SDS011;32569;51.762;8.564;2023-02-20T05:45:27;16.33;;;11.00;;
15230;SDS011;32569;51.762;8.564;2023-02-20T05:47:55;15.47;;;10.50;;
15230;SDS011;32569;51.762;8.564;2023-02-20T05:50:25;13.03;;;10.33;;
15230;SDS011;32569;51.762;8.564;2023-02-20T05:52:54;15.53;;;11.07;;
15230;SDS011;32569;51.762;8.564;2023-02-20T05:55:21;13.37;;;9.27;;
15230;SDS011;32569;51.762;8.564;2023-02-20T05:57:54;13.47;;;9.17;;
15230;SDS011;32569;51.762;8.564;2023-02-20T06:00:20;10.57;;;8.90;;
15230;SDS011;32569;51.762;8.564;2023-02-20T06:02:47;11.07;;;8.93;;
15230;SDS011;32569;51.762;8.564;2023-02-20T06:05:18;10.77;;;8.10;;
15230;SDS011;32569;51.762;8.564;2023-02-20T06:07:45;12.60;;;8.20;;
15230;SDS011;32569;51.762;8.564;2023-02-20T06:10:13;11.17;;;7.77;;
15230;SDS011;32569;51.762;8.564;2023-02-20T06:12:40;10.43;;;7.80;;
15230;SDS011;32569;51.762;8.564;2023-02-20T06:15:07;11.13;;;7.83;;
15230;SDS011;32569;51.762;8.564;2023-02-20T06:17:34;10.47;;;7.70;;
15230;SDS011;32569;51.762;8.564;2023-02-20T06:20:01;9.83;;;7.80;;
15230;SDS011;32569;51.762;8.564;2023-02-20T06:22:32;9.53;;;7.03;;
15230;SDS011;32569;51.762;8.564;2023-02-20T06:24:59;8.20;;;7.00;;
15230;SDS011;32569;51.762;8.564;2023-02-20T06:27:29;8.03;;;7.10;;
15230;SDS011;32569;51.762;8.564;2023-02-20T06:29:55;8.03;;;6.63;;
15230;SDS011;32569;51.762;8.564;2023-02-20T06:32:28;9.63;;;6.83;;
15230;SDS011;32569;51.762;8.564;2023-02-20T06:34:55;10.37;;;6.73;;
15230;SDS011;32569;51.762;8.564;2023-02-20T06:37:22;9.13;;;6.30;;
15230;SDS011;32569;51.762;8.564;2023-02-20T06:39:50;8.97;;;6.60;;
15230;SDS011;32569;51.762;8.564;2023-02-20T06:42:16;9.00;;;6.73;;
15230;SDS011;32569;51.762;8.564;2023-02-20T06:44:45;8.37;;;6.63;;
15230;SDS011;32569;51.762;8.564;2023-02-20T06:47:18;8.13;;;6.80;;
15230;SDS011;32569;51.762;8.564;2023-02-20T06:49:45;7.37;;;6.07;;
15230;SDS011;32569;51.762;8.564;2023-02-20T06:52:14;10.67;;;6.53;;
15230;SDS011;32569;51.762;8.564;2023-02-20T06:54:41;7.37;;;6.20;;
15230;SDS011;32569;51.762;8.564;2023-02-20T06:57:15;9.40;;;6.37;;
15230;SDS011;32569;51.762;8.564;2023-02-20T06:59:44;11.10;;;6.67;;
15230;SDS011;32569;51.762;8.564;2023-02-20T07:02:19;8.23;;;6.27;;
15230;SDS011;32569;51.762;8.564;2023-02-20T07:04:52;11.60;;;5.97;;
15230;SDS011;32569;51.762;8.564;2023-02-20T07:07:38;10.13;;;5.97;;
15230;SDS011;32569;51.762;8.564;2023-02-20T07:10:05;8.93;;;6.57;;
15230;SDS011;32569;51.762;8.564;2023-02-20T07:12:34;9.50;;;6.40;;
15230;SDS011;32569;51.762;8.564;2023-02-20T07:15:05;7.00;;;4.87;;
15230;SDS011;32569;51.762;8.564;2023-02-20T07:17:32;5.70;;;5.13;;
15230;SDS011;32569;51.762;8.564;2023-02-20T07:20:07;7.30;;;5.20;;
15230;SDS011;32569;51.762;8.564;2023-02-20T07:22:37;7.93;;;5.80;;
15230;SDS011;32569;51.762;8.564;2023-02-20T07:25:04;9.43;;;6.10;;
15230;SDS011;32569;51.762;8.564;2023-02-20T07:27:35;9.63;;;5.13;;
15230;SDS011;32569;51.762;8.564;2023-02-20T07:30:02;7.77;;;5.77;;
15230;SDS011;32569;51.762;8.564;2023-02-20T07:32:29;10.00;;;6.17;;
15230;SDS011;32569;51.762;8.564;2023-02-20T07:34:56;9.07;;;7.27;;
15230;SDS011;32569;51.762;8.564;2023-02-20T07:37:22;11.33;;;8.37;;
15230;SDS011;32569;51.762;8.564;2023-02-20T07:39:58;10.83;;;8.00;;
15230;SDS011;32569;51.762;8.564;2023-02-20T07:42:25;10.57;;;8.20;;
15230;SDS011;32569;51.762;8.564;2023-02-20T07:45:05;12.80;;;8.37;;
15230;SDS011;32569;51.762;8.564;2023-02-20T07:47:38;11.50;;;8.70;;
15230;SDS011;32569;51.762;8.564;2023-02-20T07:50:08;10.63;;;8.40;;
15230;SDS011;32569;51.762;8.564;2023-02-20T07:52:35;15.00;;;9.10;;
15230;SDS011;32569;51.762;8.564;2023-02-20T07:55:05;11.73;;;8.67;;
15230;SDS011;32569;51.762;8.564;2023-02-20T07:57:35;11.00;;;7.83;;
15230;SDS011;32569;51.762;8.564;2023-02-20T08:00:06;11.10;;;8.37;;
15230;SDS011;32569;51.762;8.564;2023-02-20T08:02:35;13.73;;;8.80;;
15230;SDS011;32569;51.762;8.564;2023-02-20T08:05:08;10.07;;;8.03;;
15230;SDS011;32569;51.762;8.564;2023-02-20T08:07:34;12.93;;;9.00;;
15230;SDS011;32569;51.762;8.564;2023-02-20T08:10:01;10.23;;;9.23;;
15230;SDS011;32569;51.762;8.564;2023-02-20T08:12:28;10.93;;;8.90;;
15230;SDS011;32569;51.762;8.564;2023-02-20T08:14:58;10.53;;;9.43;;
15230;SDS011;32569;51.762;8.564;2023-02-20T08:17:32;12.37;;;10.67;;
15230;SDS011;32569;51.762;8.564;2023-02-20T08:19:58;12.53;;;10.20;;
15230;SDS011;32569;51.762;8.564;2023-02-20T08:22:28;13.73;;;11.60;;
15230;SDS011;32569;51.762;8.564;2023-02-20T08:24:57;13.33;;;11.47;;
15230;SDS011;32569;51.762;8.564;2023-02-20T08:27:27;14.63;;;12.13;;
15230;SDS011;32569;51.762;8.564;2023-02-20T08:29:57;15.10;;;13.30;;
15230;SDS011;32569;51.762;8.564;2023-02-20T08:32:24;18.70;;;13.10;;
15230;SDS011;32569;51.762;8.564;2023-02-20T08:34:52;15.53;;;13.03;;
15230;SDS011;32569;51.762;8.564;2023-02-20T08:37:19;16.17;;;12.93;;
15230;SDS011;32569;51.762;8.564;2023-02-20T08:39:45;17.90;;;14.93;;
15230;SDS011;32569;51.762;8.564;2023-02-20T08:42:13;18.47;;;15.40;;
15230;SDS011;32569;51.762;8.564;2023-02-20T08:44:41;19.57;;;15.77;;
15230;SDS011;32569;51.762;8.564;2023-02-20T08:47:11;21.33;;;17.10;;
15230;SDS011;32569;51.762;8.564;2023-02-20T08:49:50;19.60;;;16.13;;
15230;SDS011;32569;51.762;8.564;2023-02-20T08:52:18;21.43;;;16.30;;
15230;SDS011;32569;51.762;8.564;2023-02-20T08:54:45;19.20;;;15.47;;
15230;SDS011;32569;51.762;8.564;2023-02-20T08:57:18;20.40;;;15.57;;
15230;SDS011;32569;51.762;8.564;2023-02-20T08:59:44;18.20;;;14.43;;
15230;SDS011;32569;51.762;8.564;2023-02-20T09:02:14;16.97;;;13.80;;
15230;SDS011;32569;51.762;8.564;2023-02-20T09:04:42;18.37;;;14.83;;
15230;SDS011;32569;51.762;8.564;2023-02-20T09:07:10;18.07;;;13.97;;
15230;SDS011;32569;51.762;8.564;2023-02-20T09:09:39;17.77;;;13.70;;
15230;SDS011;32569;51.762;8.564;2023-02-20T09:12:09;17.43;;;14.33;;
15230;SDS011;32569;51.762;8.564;2023-02-20T09:14:38;17.33;;;13.63;;
15230;SDS011;32569;51.762;8.564;2023-02-20T09:17:08;17.53;;;15.13;;
15230;SDS011;32569;51.762;8.564;2023-02-20T09:19:37;16.00;;;13.67;;
15230;SDS011;32569;51.762;8.564;2023-02-20T09:22:04;19.10;;;14.10;;
15230;SDS011;32569;51.762;8.564;2023-02-20T09:24:31;15.60;;;13.43;;
15230;SDS011;32569;51.762;8.564;2023-02-20T09:27:00;17.90;;;13.77;;
15230;SDS011;32569;51.762;8.564;2023-02-20T09:29:30;17.30;;;14.30;;
15230;SDS011;32569;51.762;8.564;2023-02-20T09:32:06;15.13;;;13.37;;
15230;SDS011;32569;51.762;8.564;2023-02-20T09:34:36;18.93;;;13.67;;
15230;SDS011;32569;51.762;8.564;2023-02-20T09:37:03;16.30;;;13.73;;
15230;SDS011;32569;51.762;8.564;2023-02-20T09:39:30;17.27;;;13.23;;
15230;SDS011;32569;51.762;8.564;2023-02-20T09:42:11;18.10;;;13.67;;
15230;SDS011;32569;51.762;8.564;2023-02-20T09:44:49;17.87;;;12.77;;
15230;SDS011;32569;51.762;8.564;2023-02-20T09:47:29;17.23;;;13.87;;
15230;SDS011;32569;51.762;8.564;2023-02-20T09:50:10;17.33;;;12.80;;
15230;SDS011;32569;51.762;8.564;2023-02-20T09:52:40;19.97;;;13.33;;
15230;SDS011;32569;51.762;8.564;2023-02-20T09:55:10;17.70;;;13.70;;
15230;SDS011;32569;51.762;8.564;2023-02-20T09:57:40;17.57;;;13.33;;
15230;SDS011;32569;51.762;8.564;2023-02-20T10:00:11;16.97;;;13.17;;
15230;SDS011;32569;51.762;8.564;2023-02-20T10:02:48;17.13;;;12.00;;
15230;SDS011;32569;51.762;8.564;2023-02-20T10:05:20;15.40;;;12.27;;
15230;SDS011;32569;51.762;8.564;2023-02-20T10:07:54;15.63;;;11.50;;
15230;SDS011;32569;51.762;8.564;2023-02-20T10:10:22;16.43;;;12.73;;
15230;SDS011;32569;51.762;8.564;2023-02-20T10:13:03;15.80;;;12.27;;
15230;SDS011;32569;51.762;8.564;2023-02-20T10:15:44;14.37;;;11.17;;
15230;SDS011;32569;51.762;8.564;2023-02-20T10:18:22;16.20;;;11.03;;
15230;SDS011;32569;51.762;8.564;2023-02-20T10:21:00;15.43;;;10.50;;
15230;SDS011;32569;51.762;8.564;2023-02-20T10:23:40;15.50;;;10.60;;
15230;SDS011;32569;51.762;8.564;2023-02-20T10:26:17;15.77;;;11.90;;
15230;SDS011;32569;51.762;8.564;2023-02-20T10:28:51;14.90;;;10.63;;
15230;SDS011;32569;51.762;8.564;2023-02-20T10:31:31;12.63;;;10.10;;
15230;SDS011;32569;51.762;8.564;2023-02-20T10:34:02;13.47;;;10.23;;
15230;SDS011;32569;51.762;8.564;2023-02-20T10:36:37;15.90;;;10.33;;
15230;SDS011;32569;51.762;8.564;2023-02-20T10:39:10;16.50;;;11.70;;
15230;SDS011;32569;51.762;8.564;2023-02-20T10:41:40;14.93;;;11.23;;
15230;SDS011;32569;51.762;8.564;2023-02-20T10:44:14;15.67;;;10.70;;
15230;SDS011;32569;51.762;8.564;2023-02-20T10:46:50;13.60;;;11.13;;
15230;SDS011;32569;51.762;8.564;2023-02-20T10:49:24;15.80;;;11.10;;
15230;SDS011;32569;51.762;8.564;2023-02-20T10:52:04;12.67;;;10.67;;
15230;SDS011;32569;51.762;8.564;2023-02-20T10:54:42;14.90;;;10.83;;
15230;SDS011;32569;51.762;8.564;2023-02-20T10:57:21;14.40;;;10.83;;
15230;SDS011;32569;51.762;8.564;2023-02-20T10:59:54;13.50;;;10.43;;
15230;SDS011;32569;51.762;8.564;2023-02-20T11:02:29;12.67;;;10.70;;
15230;SDS011;32569;51.762;8.564;2023-02-20T11:05:04;16.27;;;11.57;;
15230;SDS011;32569;51.762;8.564;2023-02-20T11:07:34;14.67;;;11.33;;
15230;SDS011;32569;51.762;8.564;2023-02-20T11:10:06;16.23;;;11.37;;
15230;SDS011;32569;51.762;8.564;2023-02-20T11:12:40;17.43;;;11.53;;
15230;SDS011;32569;51.762;8.564;2023-02-20T11:15:11;15.10;;;10.00;;
15230;SDS011;32569;51.762;8.564;2023-02-20T11:17:40;14.07;;;11.57;;
15230;SDS011;32569;51.762;8.564;2023-02-20T11:23:06;14.27;;;11.37;;
15230;SDS011;32569;51.762;8.564;2023-02-20T11:25:40;14.97;;;11.37;;
15230;SDS011;32569;51.762;8.564;2023-02-20T11:28:12;16.57;;;11.20;;
15230;SDS011;32569;51.762;8.564;2023-02-20T11:30:45;15.83;;;12.50;;
15230;SDS011;32569;51.762;8.564;2023-02-20T11:33:16;15.20;;;11.47;;
15230;SDS011;32569;51.762;8.564;2023-02-20T11:35:44;16.27;;;11.93;;
15230;SDS011;32569;51.762;8.564;2023-02-20T11:38:29;14.40;;;11.97;;
15230;SDS011;32569;51.762;8.564;2023-02-20T11:40:59;15.83;;;11.67;;
15230;SDS011;32569;51.762;8.564;2023-02-20T11:43:33;15.43;;;12.13;;
15230;SDS011;32569;51.762;8.564;2023-02-20T11:46:12;15.37;;;12.33;;
15230;SDS011;32569;51.762;8.564;2023-02-20T11:49:04;14.83;;;11.73;;
15230;SDS011;32569;51.762;8.564;2023-02-20T11:51:39;16.57;;;12.17;;
15230;SDS011;32569;51.762;8.564;2023-02-20T11:54:07;19.33;;;12.73;;
15230;SDS011;32569;51.762;8.564;2023-02-20T11:56:37;17.47;;;12.43;;
15230;SDS011;32569;51.762;8.564;2023-02-20T11:59:27;20.73;;;12.97;;
15230;SDS011;32569;51.762;8.564;2023-02-20T12:04:59;15.53;;;11.73;;
15230;SDS011;32569;51.762;8.564;2023-02-20T12:07:32;16.63;;;12.90;;
15230;SDS011;32569;51.762;8.564;2023-02-20T12:10:02;18.97;;;13.00;;
15230;SDS011;32569;51.762;8.564;2023-02-20T12:12:35;19.00;;;12.50;;
15230;SDS011;32569;51.762;8.564;2023-02-20T12:15:12;16.63;;;12.10;;
15230;SDS011;32569;51.762;8.564;2023-02-20T12:17:43;17.00;;;12.90;;
15230;SDS011;32569;51.762;8.564;2023-02-20T12:20:19;19.93;;;13.30;;
15230;SDS011;32569;51.762;8.564;2023-02-20T12:22:50;19.90;;;13.40;;
15230;SDS011;32569;51.762;8.564;2023-02-20T12:25:35;17.60;;;13.13;;
15230;SDS011;32569;51.762;8.564;2023-02-20T12:28:15;20.30;;;12.27;;
15230;SDS011;32569;51.762;8.564;2023-02-20T12:30:56;17.97;;;13.27;;
15230;SDS011;32569;51.762;8.564;2023-02-20T12:33:45;17.80;;;13.73;;
15230;SDS011;32569;51.762;8.564;2023-02-20T12:36:29;17.80;;;13.33;;
15230;SDS011;32569;51.762;8.564;2023-02-20T12:39:04;19.00;;;12.97;;
15230;SDS011;32569;51.762;8.564;2023-02-20T12:41:48;63.70;;;57.17;;
15230;SDS011;32569;51.762;8.564;2023-02-20T12:44:27;16.83;;;12.97;;
15230;SDS011;32569;51.762;8.564;2023-02-20T12:47:09;18.53;;;12.97;;
15230;SDS011;32569;51.762;8.564;2023-02-20T12:50:05;16.50;;;12.77;;
15230;SDS011;32569;51.762;8.564;2023-02-20T12:52:52;18.60;;;14.03;;
15230;SDS011;32569;51.762;8.564;2023-02-20T12:55:41;18.17;;;13.20;;
15230;SDS011;32569;51.762;8.564;2023-02-20T12:58:19;19.40;;;12.97;;
15230;SDS011;32569;51.762;8.564;2023-02-20T13:01:10;18.47;;;12.83;;
15230;SDS011;32569;51.762;8.564;2023-02-20T13:03:48;23.77;;;13.77;;
15230;SDS011;32569;51.762;8.564;2023-02-20T13:06:25;19.60;;;13.67;;
15230;SDS011;32569;51.762;8.564;2023-02-20T13:08:59;22.87;;;13.40;;
15230;SDS011;32569;51.762;8.564;2023-02-20T13:11:30;18.83;;;13.50;;
15230;SDS011;32569;51.762;8.564;2023-02-20T13:14:03;17.13;;;12.83;;
15230;SDS011;32569;51.762;8.564;2023-02-20T13:16:40;18.80;;;12.80;;
15230;SDS011;32569;51.762;8.564;2023-02-20T13:19:14;20.10;;;13.77;;
15230;SDS011;32569;51.762;8.564;2023-02-20T13:21:58;18.60;;;13.17;;
15230;SDS011;32569;51.762;8.564;2023-02-20T13:24:26;21.20;;;13.83;;
15230;SDS011;32569;51.762;8.564;2023-02-20T13:26:57;17.07;;;14.80;;
15230;SDS011;32569;51.762;8.564;2023-02-20T13:29:34;20.63;;;14.73;;
15230;SDS011;32569;51.762;8.564;2023-02-20T13:32:04;18.57;;;13.53;;
15230;SDS011;32569;51.762;8.564;2023-02-20T13:34:49;20.87;;;14.30;;
15230;SDS011;32569;51.762;8.564;2023-02-20T13:40:42;22.20;;;14.67;;
15230;SDS011;32569;51.762;8.564;2023-02-20T13:43:29;20.73;;;14.77;;
15230;SDS011;32569;51.762;8.564;2023-02-20T13:48:54;22.00;;;15.23;;
15230;SDS011;32569;51.762;8.564;2023-02-20T13:51:36;25.43;;;14.43;;
15230;SDS011;32569;51.762;8.564;2023-02-20T13:54:13;20.30;;;15.00;;
15230;SDS011;32569;51.762;8.564;2023-02-20T13:57:17;21.80;;;15.33;;
15230;SDS011;32569;51.762;8.564;2023-02-20T13:59:45;21.37;;;14.70;;
15230;SDS011;32569;51.762;8.564;2023-02-20T14:02:21;22.40;;;15.40;;
15230;SDS011;32569;51.762;8.564;2023-02-20T14:04:57;20.43;;;14.27;;
15230;SDS011;32569;51.762;8.564;2023-02-20T14:07:32;23.00;;;14.10;;
15230;SDS011;32569;51.762;8.564;2023-02-20T14:10:05;20.20;;;13.80;;
15230;SDS011;32569;51.762;8.564;2023-02-20T14:12:44;23.27;;;14.50;;
15230;SDS011;32569;51.762;8.564;2023-02-20T14:15:18;21.93;;;14.37;;
15230;SDS011;32569;51.762;8.564;2023-02-20T14:17:49;26.23;;;16.50;;
15230;SDS011;32569;51.762;8.564;2023-02-20T14:20:19;21.87;;;16.27;;
15230;SDS011;32569;51.762;8.564;2023-02-20T14:23:07;25.67;;;17.13;;
15230;SDS011;32569;51.762;8.564;2023-02-20T14:25:46;24.67;;;16.03;;
15230;SDS011;32569;51.762;8.564;2023-02-20T14:28:18;22.33;;;15.83;;
15230;SDS011;32569;51.762;8.564;2023-02-20T14:30:44;22.67;;;16.40;;
15230;SDS011;32569;51.762;8.564;2023-02-20T14:33:19;26.07;;;17.50;;
15230;SDS011;32569;51.762;8.564;2023-02-20T14:36:16;26.17;;;17.30;;
15230;SDS011;32569;51.762;8.564;2023-02-20T14:38:54;27.73;;;18.33;;
15230;SDS011;32569;51.762;8.564;2023-02-20T14:41:37;24.87;;;17.60;;
15230;SDS011;32569;51.762;8.564;2023-02-20T14:44:04;23.87;;;17.13;;
15230;SDS011;32569;51.762;8.564;2023-02-20T14:46:49;28.60;;;18.97;;
15230;SDS011;32569;51.762;8.564;2023-02-20T14:49:24;25.87;;;17.77;;
15230;SDS011;32569;51.762;8.564;2023-02-20T14:52:10;25.97;;;17.57;;
15230;SDS011;32569;51.762;8.564;2023-02-20T14:54:57;24.67;;;16.33;;
15230;SDS011;32569;51.762;8.564;2023-02-20T14:57:29;24.13;;;18.33;;
15230;SDS011;32569;51.762;8.564;2023-02-20T15:00:21;28.53;;;17.83;;
15230;SDS011;32569;51.762;8.564;2023-02-20T15:02:54;27.77;;;17.20;;
15230;SDS011;32569;51.762;8.564;2023-02-20T15:05:25;23.90;;;17.03;;
15230;SDS011;32569;51.762;8.564;2023-02-20T15:07:59;27.13;;;18.67;;
15230;SDS011;32569;51.762;8.564;2023-02-20T15:10:31;24.90;;;18.37;;
15230;SDS011;32569;51.762;8.564;2023-02-20T15:13:11;25.77;;;18.33;;
15230;SDS011;32569;51.762;8.564;2023-02-20T15:15:40;30.17;;;18.40;;
15230;SDS011;32569;51.762;8.564;2023-02-20T15:18:13;26.77;;;17.77;;
15230;SDS011;32569;51.762;8.564;2023-02-20T15:20:42;23.30;;;17.90;;
15230;SDS011;32569;51.762;8.564;2023-02-20T15:23:20;24.73;;;17.53;;
15230;SDS011;32569;51.762;8.564;2023-02-20T15:25:56;27.10;;;17.07;;